sensor_id;sensor_type;location;lat;lon;timestamp;pressure;altitude;pressure_sealevel;temperature;humidity
61086;BME280;46967;48.876;2.136;2023-01-31T00:00:51;102727.28;;;1.69;86.15
61086;BME280;46967;48.876;2.136;2023-01-31T00:03:17;102733.13;;;1.65;85.84
61086;BME280;46967;48.876;2.136;2023-01-31T00:05:42;102739.03;;;1.64;85.94
61086;BME280;46967;48.876;2.136;2023-01-31T00:08:07;102736.41;;;1.62;85.65
61086;BME280;46967;48.876;2.136;2023-01-31T00:10:33;102742.34;;;1.61;85.74
61086;BME280;46967;48.876;2.136;2023-01-31T00:12:58;102734.59;;;1.60;85.98
61086;BME280;46967;48.876;2.136;2023-01-31T00:15:24;102730.31;;;1.59;85.88
61086;BME280;46967;48.876;2.136;2023-01-31T00:17:49;102726.81;;;1.57;85.75
61086;BME280;46967;48.876;2.136;2023-01-31T00:20:14;102725.88;;;1.55;86.03
61086;BME280;46967;48.876;2.136;2023-01-31T00:22:40;102715.66;;;1.55;85.75
61086;BME280;46967;48.876;2.136;2023-01-31T00:25:05;102709.56;;;1.51;85.59
61086;BME280;46967;48.876;2.136;2023-01-31T00:27:31;102711.22;;;1.51;86.01
61086;BME280;46967;48.876;2.136;2023-01-31T00:29:56;102720.59;;;1.50;85.89
61086;BME280;46967;48.876;2.136;2023-01-31T00:32:22;102716.31;;;1.51;86.35
61086;BME280;46967;48.876;2.136;2023-01-31T00:34:49;102722.28;;;1.50;86.13
61086;BME280;46967;48.876;2.136;2023-01-31T00:37:15;102722.28;;;1.50;86.36
61086;BME280;46967;48.876;2.136;2023-01-31T00:39:40;102723.91;;;1.48;86.39
61086;BME280;46967;48.876;2.136;2023-01-31T00:42:05;102724.66;;;1.45;86.23
61086;BME280;46967;48.876;2.136;2023-01-31T00:44:31;102726.34;;;1.44;85.90
61086;BME280;46967;48.876;2.136;2023-01-31T00:46:56;102725.41;;;1.42;85.98
61086;BME280;46967;48.876;2.136;2023-01-31T00:49:21;102728.84;;;1.43;86.07
61086;BME280;46967;48.876;2.136;2023-01-31T00:51:47;102727.03;;;1.40;85.87
61086;BME280;46967;48.876;2.136;2023-01-31T00:54:12;102726.19;;;1.40;85.86
61086;BME280;46967;48.876;2.136;2023-01-31T00:56:37;102721.06;;;1.40;85.41
61086;BME280;46967;48.876;2.136;2023-01-31T00:59:03;102724.25;;;1.34;86.12
61086;BME280;46967;48.876;2.136;2023-01-31T01:01:33;102725.22;;;1.38;86.19
61086;BME280;46967;48.876;2.136;2023-01-31T01:03:59;102717.56;;;1.38;86.16
61086;BME280;46967;48.876;2.136;2023-01-31T01:06:25;102719.19;;;1.36;86.36
61086;BME280;46967;48.876;2.136;2023-01-31T01:08:52;102705.47;;;1.34;86.53
61086;BME280;46967;48.876;2.136;2023-01-31T01:11:23;102707.13;;;1.33;86.92
61086;BME280;46967;48.876;2.136;2023-01-31T01:13:49;102702.19;;;1.38;87.18
61086;BME280;46967;48.876;2.136;2023-01-31T01:16:23;102697.06;;;1.38;86.97
61086;BME280;46967;48.876;2.136;2023-01-31T01:18:49;102690.28;;;1.38;87.30
61086;BME280;46967;48.876;2.136;2023-01-31T01:21:20;102704.81;;;1.39;87.69
61086;BME280;46967;48.876;2.136;2023-01-31T01:23:46;102711.50;;;1.36;87.49
61086;BME280;46967;48.876;2.136;2023-01-31T01:26:19;102716.69;;;1.37;87.60
61086;BME280;46967;48.876;2.136;2023-01-31T01:28:46;102706.34;;;1.34;88.19
61086;BME280;46967;48.876;2.136;2023-01-31T01:31:13;102704.56;;;1.33;88.25
61086;BME280;46967;48.876;2.136;2023-01-31T01:33:40;102702.13;;;1.36;88.60
61086;BME280;46967;48.876;2.136;2023-01-31T01:36:07;102702.13;;;1.36;87.93
61086;BME280;46967;48.876;2.136;2023-01-31T01:38:34;102703.91;;;1.37;88.24
61086;BME280;46967;48.876;2.136;2023-01-31T01:41:00;102708.16;;;1.37;87.95
61086;BME280;46967;48.876;2.136;2023-01-31T01:43:48;102695.97;;;1.31;87.89
61086;BME280;46967;48.876;2.136;2023-01-31T01:46:18;102704.56;;;1.32;87.81
61086;BME280;46967;48.876;2.136;2023-01-31T01:48:47;102702.84;;;1.32;87.87
61086;BME280;46967;48.876;2.136;2023-01-31T01:51:14;102702.84;;;1.32;87.86
61086;BME280;46967;48.876;2.136;2023-01-31T01:53:44;102709.66;;;1.32;87.57
61086;BME280;46967;48.876;2.136;2023-01-31T01:56:19;102699.44;;;1.32;87.61
61086;BME280;46967;48.876;2.136;2023-01-31T01:58:52;102700.06;;;1.26;87.09
61086;BME280;46967;48.876;2.136;2023-01-31T02:01:21;102697.25;;;1.20;88.34
61086;BME280;46967;48.876;2.136;2023-01-31T02:03:47;102693.88;;;1.21;88.99
61086;BME280;46967;48.876;2.136;2023-01-31T02:06:13;102687.88;;;1.20;89.74
61086;BME280;46967;48.876;2.136;2023-01-31T02:08:41;102683.59;;;1.19;89.99
61086;BME280;46967;48.876;2.136;2023-01-31T02:11:08;102679.53;;;1.24;89.49
61086;BME280;46967;48.876;2.136;2023-01-31T02:13:38;102675.31;;;1.26;89.49
61086;BME280;46967;48.876;2.136;2023-01-31T02:16:04;102674.47;;;1.26;89.20
61086;BME280;46967;48.876;2.136;2023-01-31T02:18:30;102671.97;;;1.27;88.80
61086;BME280;46967;48.876;2.136;2023-01-31T02:32:33;102682.50;;;1.13;89.04
61086;BME280;46967;48.876;2.136;2023-01-31T02:35:24;102688.34;;;1.10;89.20
61086;BME280;46967;48.876;2.136;2023-01-31T02:38:03;102695.97;;;1.08;89.45
61086;BME280;46967;48.876;2.136;2023-01-31T02:46:02;102685.78;;;1.10;88.95
61086;BME280;46967;48.876;2.136;2023-01-31T02:48:54;102686.78;;;1.14;88.80
61086;BME280;46967;48.876;2.136;2023-01-31T02:51:28;102682.44;;;1.11;88.69
61086;BME280;46967;48.876;2.136;2023-01-31T02:54:06;102688.47;;;1.13;88.55
61086;BME280;46967;48.876;2.136;2023-01-31T02:56:35;102692.66;;;1.11;88.50
61086;BME280;46967;48.876;2.136;2023-01-31T02:59:07;102692.59;;;1.10;88.36
61086;BME280;46967;48.876;2.136;2023-01-31T03:01:37;102682.38;;;1.10;88.71
61086;BME280;46967;48.876;2.136;2023-01-31T03:04:08;102690.78;;;1.07;88.58
61086;BME280;46967;48.876;2.136;2023-01-31T03:09:16;102694.84;;;1.02;87.84
61086;BME280;46967;48.876;2.136;2023-01-31T03:12:55;102696.44;;;1.00;88.06
61086;BME280;46967;48.876;2.136;2023-01-31T03:15:18;102702.28;;;0.96;88.18
61086;BME280;46967;48.876;2.136;2023-01-31T03:18:06;102702.81;;;0.88;88.28
61086;BME280;46967;48.876;2.136;2023-01-31T03:20:49;102704.28;;;0.82;88.50
61086;BME280;46967;48.876;2.136;2023-01-31T03:23:19;102693.91;;;0.79;88.74
61086;BME280;46967;48.876;2.136;2023-01-31T03:25:45;102704.94;;;0.78;88.47
61086;BME280;46967;48.876;2.136;2023-01-31T03:28:15;102706.56;;;0.76;88.68
61086;BME280;46967;48.876;2.136;2023-01-31T03:30:45;102702.28;;;0.75;88.73
61086;BME280;46967;48.876;2.136;2023-01-31T03:33:16;102694.66;;;0.76;88.81
61086;BME280;46967;48.876;2.136;2023-01-31T03:35:47;102698.97;;;0.77;88.42
61086;BME280;46967;48.876;2.136;2023-01-31T03:38:25;102704.06;;;0.77;88.43
61086;BME280;46967;48.876;2.136;2023-01-31T03:41:16;102705.63;;;0.74;88.11
61086;BME280;46967;48.876;2.136;2023-01-31T03:43:53;102699.66;;;0.73;88.49
61086;BME280;46967;48.876;2.136;2023-01-31T03:46:28;102699.59;;;0.71;88.40
61086;BME280;46967;48.876;2.136;2023-01-31T03:48:56;102702.09;;;0.70;88.20
61086;BME280;46967;48.876;2.136;2023-01-31T03:51:27;102696.97;;;0.70;88.94
61086;BME280;46967;48.876;2.136;2023-01-31T03:54:00;102698.59;;;0.68;89.05
61086;BME280;46967;48.876;2.136;2023-01-31T03:59:29;102692.59;;;0.67;88.96
61086;BME280;46967;48.876;2.136;2023-01-31T04:01:59;102696.84;;;0.67;89.47
61086;BME280;46967;48.876;2.136;2023-01-31T04:04:30;102706.25;;;0.68;89.52
61086;BME280;46967;48.876;2.136;2023-01-31T04:06:58;102703.63;;;0.66;89.87
61086;BME280;46967;48.876;2.136;2023-01-31T04:09:24;102711.44;;;0.69;90.08
61086;BME280;46967;48.876;2.136;2023-01-31T04:11:50;102703.81;;;0.71;90.59
61086;BME280;46967;48.876;2.136;2023-01-31T04:14:16;102696.28;;;0.74;90.78
61086;BME280;46967;48.876;2.136;2023-01-31T04:16:42;102700.59;;;0.75;90.80
61086;BME280;46967;48.876;2.136;2023-01-31T04:19:07;102703.16;;;0.75;91.03
61086;BME280;46967;48.876;2.136;2023-01-31T04:21:32;102708.38;;;0.78;91.21
61086;BME280;46967;48.876;2.136;2023-01-31T04:23:58;102715.22;;;0.79;90.67
61086;BME280;46967;48.876;2.136;2023-01-31T04:26:23;102700.06;;;0.84;90.85
61086;BME280;46967;48.876;2.136;2023-01-31T04:28:50;102705.19;;;0.84;90.78
61086;BME280;46967;48.876;2.136;2023-01-31T04:31:16;102710.44;;;0.87;91.55
61086;BME280;46967;48.876;2.136;2023-01-31T04:33:41;102710.56;;;0.90;92.02
61086;BME280;46967;48.876;2.136;2023-01-31T04:36:07;102702.94;;;0.92;91.62
61086;BME280;46967;48.876;2.136;2023-01-31T04:38:32;102708.00;;;0.90;90.69
61086;BME280;46967;48.876;2.136;2023-01-31T04:40:58;102714.00;;;0.90;90.78
61086;BME280;46967;48.876;2.136;2023-01-31T04:43:23;102702.03;;;0.89;91.02
61086;BME280;46967;48.876;2.136;2023-01-31T04:45:48;102698.66;;;0.90;90.56
61086;BME280;46967;48.876;2.136;2023-01-31T04:48:14;102689.25;;;0.89;90.69
61086;BME280;46967;48.876;2.136;2023-01-31T04:50:39;102708.84;;;0.89;91.30
61086;BME280;46967;48.876;2.136;2023-01-31T04:53:04;102709.88;;;0.94;91.87
61086;BME280;46967;48.876;2.136;2023-01-31T04:55:31;102694.59;;;0.96;91.72
61086;BME280;46967;48.876;2.136;2023-01-31T04:57:57;102695.34;;;0.93;91.38
61086;BME280;46967;48.876;2.136;2023-01-31T05:00:22;102696.00;;;0.87;91.66
61086;BME280;46967;48.876;2.136;2023-01-31T05:02:47;102695.09;;;0.87;92.41
61086;BME280;46967;48.876;2.136;2023-01-31T05:05:14;102693.38;;;0.86;91.53
61086;BME280;46967;48.876;2.136;2023-01-31T05:07:39;102676.34;;;0.86;92.01
61086;BME280;46967;48.876;2.136;2023-01-31T05:10:05;102678.81;;;0.85;92.20
61086;BME280;46967;48.876;2.136;2023-01-31T05:12:31;102672.22;;;0.90;92.75
61086;BME280;46967;48.876;2.136;2023-01-31T05:14:56;102672.38;;;0.95;93.03
61086;BME280;46967;48.876;2.136;2023-01-31T05:17:21;102671.53;;;0.94;92.87
61086;BME280;46967;48.876;2.136;2023-01-31T05:19:56;102686.00;;;0.94;92.53
61086;BME280;46967;48.876;2.136;2023-01-31T05:22:21;102690.22;;;0.93;91.78
61086;BME280;46967;48.876;2.136;2023-01-31T05:24:48;102678.22;;;0.90;92.05
61086;BME280;46967;48.876;2.136;2023-01-31T05:27:14;102681.69;;;0.93;92.50
61086;BME280;46967;48.876;2.136;2023-01-31T05:29:39;102676.69;;;0.96;92.62
61086;BME280;46967;48.876;2.136;2023-01-31T05:32:05;102678.63;;;1.01;92.79
61086;BME280;46967;48.876;2.136;2023-01-31T05:34:30;102679.75;;;1.08;93.27
61086;BME280;46967;48.876;2.136;2023-01-31T05:36:58;102677.47;;;1.16;93.91
61086;BME280;46967;48.876;2.136;2023-01-31T05:39:23;102683.66;;;1.21;94.33
61086;BME280;46967;48.876;2.136;2023-01-31T05:41:49;102690.81;;;1.30;95.37
61086;BME280;46967;48.876;2.136;2023-01-31T05:44:15;102687.91;;;1.43;95.87
61086;BME280;46967;48.876;2.136;2023-01-31T05:46:40;102694.13;;;1.50;96.00
61086;BME280;46967;48.876;2.136;2023-01-31T05:49:06;102690.06;;;1.55;95.92
61086;BME280;46967;48.876;2.136;2023-01-31T05:51:31;102691.16;;;1.61;96.48
61086;BME280;46967;48.876;2.136;2023-01-31T05:53:57;102689.66;;;1.67;96.31
61086;BME280;46967;48.876;2.136;2023-01-31T05:56:22;102689.72;;;1.68;95.90
61086;BME280;46967;48.876;2.136;2023-01-31T05:58:48;102683.06;;;1.73;95.77
61086;BME280;46967;48.876;2.136;2023-01-31T06:01:16;102685.75;;;1.76;95.69
61086;BME280;46967;48.876;2.136;2023-01-31T06:03:42;102680.72;;;1.79;95.87
61086;BME280;46967;48.876;2.136;2023-01-31T06:06:07;102677.09;;;1.74;96.47
61086;BME280;46967;48.876;2.136;2023-01-31T06:08:33;102677.28;;;1.79;96.18
61086;BME280;46967;48.876;2.136;2023-01-31T06:11:01;102676.69;;;1.86;96.93
61086;BME280;46967;48.876;2.136;2023-01-31T06:13:28;102673.47;;;1.92;97.24
61086;BME280;46967;48.876;2.136;2023-01-31T06:15:54;102674.59;;;1.98;97.53
61086;BME280;46967;48.876;2.136;2023-01-31T06:18:19;102673.78;;;2.01;97.48
61086;BME280;46967;48.876;2.136;2023-01-31T06:20:44;102679.81;;;2.02;97.48
61086;BME280;46967;48.876;2.136;2023-01-31T06:23:10;102683.41;;;2.07;96.85
61086;BME280;46967;48.876;2.136;2023-01-31T06:25:35;102705.59;;;2.06;96.83
61086;BME280;46967;48.876;2.136;2023-01-31T06:28:01;102697.81;;;2.03;97.37
61086;BME280;46967;48.876;2.136;2023-01-31T06:30:26;102710.75;;;2.08;97.70
61086;BME280;46967;48.876;2.136;2023-01-31T06:32:51;102708.56;;;2.18;98.49
61086;BME280;46967;48.876;2.136;2023-01-31T06:35:16;102699.44;;;2.25;98.34
61086;BME280;46967;48.876;2.136;2023-01-31T06:37:42;102702.75;;;2.23;98.23
61086;BME280;46967;48.876;2.136;2023-01-31T06:40:08;102712.25;;;2.25;98.13
61086;BME280;46967;48.876;2.136;2023-01-31T06:42:33;102712.25;;;2.25;98.38
61086;BME280;46967;48.876;2.136;2023-01-31T06:44:58;102717.56;;;2.31;98.37
61086;BME280;46967;48.876;2.136;2023-01-31T06:47:24;102713.47;;;2.37;98.42
61086;BME280;46967;48.876;2.136;2023-01-31T06:49:49;102716.97;;;2.39;97.42
61086;BME280;46967;48.876;2.136;2023-01-31T06:52:14;102717.56;;;2.31;98.10
61086;BME280;46967;48.876;2.136;2023-01-31T06:54:40;102712.47;;;2.33;98.03
61086;BME280;46967;48.876;2.136;2023-01-31T06:57:05;102711.72;;;2.35;97.84
61086;BME280;46967;48.876;2.136;2023-01-31T06:59:31;102709.97;;;2.34;98.15
61086;BME280;46967;48.876;2.136;2023-01-31T07:01:56;102709.44;;;2.43;97.83
61086;BME280;46967;48.876;2.136;2023-01-31T07:04:21;102707.72;;;2.44;97.63
61086;BME280;46967;48.876;2.136;2023-01-31T07:06:47;102710.41;;;2.47;97.49
61086;BME280;46967;48.876;2.136;2023-01-31T07:09:12;102714.78;;;2.49;97.59
61086;BME280;46967;48.876;2.136;2023-01-31T07:11:37;102725.34;;;2.59;97.14
61086;BME280;46967;48.876;2.136;2023-01-31T07:14:03;102721.88;;;2.58;96.53
61086;BME280;46967;48.876;2.136;2023-01-31T07:16:29;102713.34;;;2.58;96.70
61086;BME280;46967;48.876;2.136;2023-01-31T07:18:55;102709.06;;;2.58;96.32
61086;BME280;46967;48.876;2.136;2023-01-31T07:21:22;102704.88;;;2.60;96.71
61086;BME280;46967;48.876;2.136;2023-01-31T07:23:48;102704.16;;;2.64;96.13
61086;BME280;46967;48.876;2.136;2023-01-31T07:26:14;102704.03;;;2.61;96.34
61086;BME280;46967;48.876;2.136;2023-01-31T07:28:40;102702.38;;;2.62;96.66
61086;BME280;46967;48.876;2.136;2023-01-31T07:31:08;102705.91;;;2.65;96.58
61086;BME280;46967;48.876;2.136;2023-01-31T07:33:36;102709.38;;;2.67;96.66
61086;BME280;46967;48.876;2.136;2023-01-31T07:36:02;102710.94;;;2.62;97.15
61086;BME280;46967;48.876;2.136;2023-01-31T07:38:29;102711.84;;;2.64;96.69
61086;BME280;46967;48.876;2.136;2023-01-31T07:40:58;102716.31;;;2.70;96.70
61086;BME280;46967;48.876;2.136;2023-01-31T07:43:24;102711.25;;;2.71;96.30
61086;BME280;46967;48.876;2.136;2023-01-31T07:45:49;102715.53;;;2.72;96.11
61086;BME280;46967;48.876;2.136;2023-01-31T07:48:14;102707.03;;;2.74;96.49
61086;BME280;46967;48.876;2.136;2023-01-31T07:50:40;102721.69;;;2.78;96.41
61086;BME280;46967;48.876;2.136;2023-01-31T07:53:05;102720.06;;;2.80;96.43
61086;BME280;46967;48.876;2.136;2023-01-31T07:55:30;102721.88;;;2.84;96.31
61086;BME280;46967;48.876;2.136;2023-01-31T07:57:55;102721.94;;;2.85;96.15
61086;BME280;46967;48.876;2.136;2023-01-31T08:00:21;102725.34;;;2.84;95.84
61086;BME280;46967;48.876;2.136;2023-01-31T08:03:05;102727.94;;;2.86;96.21
61086;BME280;46967;48.876;2.136;2023-01-31T08:05:49;102728.16;;;2.92;96.56
61086;BME280;46967;48.876;2.136;2023-01-31T08:08:14;102726.56;;;2.96;96.54
61086;BME280;46967;48.876;2.136;2023-01-31T08:10:39;102724.13;;;3.00;96.29
61086;BME280;46967;48.876;2.136;2023-01-31T08:13:05;102723.22;;;2.98;96.85
61086;BME280;46967;48.876;2.136;2023-01-31T08:15:31;102725.19;;;3.07;96.60
61086;BME280;46967;48.876;2.136;2023-01-31T08:17:57;102724.53;;;3.13;96.54
61086;BME280;46967;48.876;2.136;2023-01-31T08:20:22;102722.19;;;3.20;96.12
61086;BME280;46967;48.876;2.136;2023-01-31T08:22:47;102727.50;;;3.26;95.86
61086;BME280;46967;48.876;2.136;2023-01-31T08:25:13;102731.16;;;3.33;96.02
61086;BME280;46967;48.876;2.136;2023-01-31T08:27:38;102727.91;;;3.39;96.01
61086;BME280;46967;48.876;2.136;2023-01-31T08:30:04;102729.00;;;3.47;96.01
61086;BME280;46967;48.876;2.136;2023-01-31T08:32:30;102724.91;;;3.52;95.81
61086;BME280;46967;48.876;2.136;2023-01-31T08:34:55;102725.94;;;3.59;95.04
61086;BME280;46967;48.876;2.136;2023-01-31T08:37:20;102731.97;;;3.61;94.71
61086;BME280;46967;48.876;2.136;2023-01-31T08:39:45;102731.31;;;3.67;94.39
61086;BME280;46967;48.876;2.136;2023-01-31T08:42:12;102726.16;;;3.67;94.85
61086;BME280;46967;48.876;2.136;2023-01-31T08:44:38;102739.19;;;3.73;94.63
61086;BME280;46967;48.876;2.136;2023-01-31T08:47:03;102739.25;;;3.74;94.92
61086;BME280;46967;48.876;2.136;2023-01-31T08:49:29;102745.28;;;3.76;94.82
61086;BME280;46967;48.876;2.136;2023-01-31T08:51:55;102759.16;;;3.83;94.23
61086;BME280;46967;48.876;2.136;2023-01-31T08:54:20;102747.38;;;3.90;93.67
61086;BME280;46967;48.876;2.136;2023-01-31T08:56:45;102743.25;;;3.95;93.24
61086;BME280;46967;48.876;2.136;2023-01-31T08:59:11;102757.28;;;4.06;92.14
61086;BME280;46967;48.876;2.136;2023-01-31T09:01:37;102751.47;;;4.13;91.59
61086;BME280;46967;48.876;2.136;2023-01-31T09:04:03;102747.31;;;4.18;91.44
61086;BME280;46967;48.876;2.136;2023-01-31T09:06:28;102757.72;;;4.23;91.70
61086;BME280;46967;48.876;2.136;2023-01-31T09:08:55;102751.84;;;4.27;91.29
61086;BME280;46967;48.876;2.136;2023-01-31T09:11:20;102751.13;;;4.33;91.46
61086;BME280;46967;48.876;2.136;2023-01-31T09:13:47;102745.31;;;4.39;90.42
61086;BME280;46967;48.876;2.136;2023-01-31T09:16:15;102738.31;;;4.34;89.71
61086;BME280;46967;48.876;2.136;2023-01-31T09:18:41;102740.31;;;4.45;89.55
61086;BME280;46967;48.876;2.136;2023-01-31T09:21:10;102740.31;;;4.45;88.71
61086;BME280;46967;48.876;2.136;2023-01-31T09:23:35;102752.28;;;4.43;88.99
61086;BME280;46967;48.876;2.136;2023-01-31T09:26:01;102752.31;;;4.44;88.65
61086;BME280;46967;48.876;2.136;2023-01-31T09:28:26;102749.09;;;4.53;88.19
61086;BME280;46967;48.876;2.136;2023-01-31T09:30:52;102753.19;;;4.45;88.70
61086;BME280;46967;48.876;2.136;2023-01-31T09:33:18;102754.16;;;4.50;87.66
61086;BME280;46967;48.876;2.136;2023-01-31T09:35:58;102749.72;;;4.43;88.13
61086;BME280;46967;48.876;2.136;2023-01-31T09:38:24;102755.72;;;4.43;88.67
61086;BME280;46967;48.876;2.136;2023-01-31T09:40:50;102757.63;;;4.50;88.11
61086;BME280;46967;48.876;2.136;2023-01-31T09:43:18;102748.56;;;4.65;87.09
61086;BME280;46967;48.876;2.136;2023-01-31T09:45:47;102755.41;;;4.64;87.11
61086;BME280;46967;48.876;2.136;2023-01-31T09:48:20;102753.59;;;4.60;87.30
61086;BME280;46967;48.876;2.136;2023-01-31T09:50:50;102768.19;;;4.61;87.53
61086;BME280;46967;48.876;2.136;2023-01-31T09:53:19;102772.69;;;4.70;87.67
61086;BME280;46967;48.876;2.136;2023-01-31T09:56:08;102785.56;;;4.70;86.74
61086;BME280;46967;48.876;2.136;2023-01-31T10:04:25;102776.53;;;4.86;86.56
61086;BME280;46967;48.876;2.136;2023-01-31T10:07:14;102767.19;;;4.89;86.43
61086;BME280;46967;48.876;2.136;2023-01-31T10:09:50;102773.19;;;4.88;86.57
61086;BME280;46967;48.876;2.136;2023-01-31T10:12:32;102776.38;;;4.80;86.77
61086;BME280;46967;48.876;2.136;2023-01-31T10:15:12;102772.41;;;4.93;86.50
61086;BME280;46967;48.876;2.136;2023-01-31T10:17:52;102778.94;;;5.15;85.39
61086;BME280;46967;48.876;2.136;2023-01-31T10:20:32;102782.44;;;5.17;85.80
61086;BME280;46967;48.876;2.136;2023-01-31T10:23:09;102770.84;;;5.36;85.25
61086;BME280;46967;48.876;2.136;2023-01-31T10:25:39;102770.97;;;5.40;84.92
61086;BME280;46967;48.876;2.136;2023-01-31T10:28:24;102771.28;;;5.54;83.47
61086;BME280;46967;48.876;2.136;2023-01-31T10:31:07;102757.16;;;5.76;82.01
61086;BME280;46967;48.876;2.136;2023-01-31T10:33:56;102753.28;;;5.95;81.46
61086;BME280;46967;48.876;2.136;2023-01-31T10:36:32;102751.97;;;6.14;80.70
61086;BME280;46967;48.876;2.136;2023-01-31T10:42:11;102742.63;;;6.21;78.71
61086;BME280;46967;48.876;2.136;2023-01-31T10:47:20;102747.84;;;6.24;78.71
61086;BME280;46967;48.876;2.136;2023-01-31T10:49:48;102754.63;;;6.19;78.76
61086;BME280;46967;48.876;2.136;2023-01-31T10:57:46;102749.66;;;6.28;78.39
61086;BME280;46967;48.876;2.136;2023-01-31T11:00:21;102737.44;;;6.20;77.90
61086;BME280;46967;48.876;2.136;2023-01-31T11:02:47;102732.41;;;6.26;78.22
61086;BME280;46967;48.876;2.136;2023-01-31T11:05:19;102724.81;;;6.33;77.53
61086;BME280;46967;48.876;2.136;2023-01-31T11:07:46;102730.03;;;6.37;77.47
61086;BME280;46967;48.876;2.136;2023-01-31T11:10:25;102716.34;;;6.39;77.49
61086;BME280;46967;48.876;2.136;2023-01-31T11:15:19;102715.44;;;6.39;77.39
61086;BME280;46967;48.876;2.136;2023-01-31T11:17:47;102713.97;;;6.53;77.27
61086;BME280;46967;48.876;2.136;2023-01-31T11:20:30;102712.31;;;6.55;77.05
61086;BME280;46967;48.876;2.136;2023-01-31T11:22:59;102708.88;;;6.56;76.73
61086;BME280;46967;48.876;2.136;2023-01-31T11:25:27;102714.03;;;6.56;77.62
61086;BME280;46967;48.876;2.136;2023-01-31T11:27:56;102714.84;;;6.52;77.39
61086;BME280;46967;48.876;2.136;2023-01-31T11:30:32;102704.56;;;6.53;77.34
61086;BME280;46967;48.876;2.136;2023-01-31T11:32:59;102699.41;;;6.55;77.19
61086;BME280;46967;48.876;2.136;2023-01-31T11:35:33;102696.91;;;6.58;77.14
61086;BME280;46967;48.876;2.136;2023-01-31T11:38:01;102695.13;;;6.56;76.89
61086;BME280;46967;48.876;2.136;2023-01-31T11:43:00;102696.97;;;6.64;77.64
61086;BME280;46967;48.876;2.136;2023-01-31T11:45:35;102683.41;;;6.76;77.72
61086;BME280;46967;48.876;2.136;2023-01-31T11:48:24;102686.34;;;7.01;76.54
61086;BME280;46967;48.876;2.136;2023-01-31T11:50:55;102670.09;;;7.06;76.25
61086;BME280;46967;48.876;2.136;2023-01-31T11:53:36;102667.81;;;7.27;76.01
61086;BME280;46967;48.876;2.136;2023-01-31T11:56:24;102667.88;;;7.31;76.14
61086;BME280;46967;48.876;2.136;2023-01-31T11:58:53;102671.28;;;7.29;75.41
61086;BME280;46967;48.876;2.136;2023-01-31T12:01:22;102668.44;;;7.10;76.09
61086;BME280;46967;48.876;2.136;2023-01-31T12:03:52;102668.22;;;6.96;76.85
61086;BME280;46967;48.876;2.136;2023-01-31T12:06:39;102674.44;;;7.07;76.60
61086;BME280;46967;48.876;2.136;2023-01-31T12:09:27;102670.00;;;7.00;77.18
61086;BME280;46967;48.876;2.136;2023-01-31T12:12:00;102670.09;;;7.05;77.45
61086;BME280;46967;48.876;2.136;2023-01-31T12:14:40;102666.63;;;7.04;76.98
61086;BME280;46967;48.876;2.136;2023-01-31T12:17:11;102665.13;;;7.19;76.68
61086;BME280;46967;48.876;2.136;2023-01-31T12:22:35;102654.69;;;7.11;77.58
61086;BME280;46967;48.876;2.136;2023-01-31T12:25:38;102640.38;;;7.36;77.31
61086;BME280;46967;48.876;2.136;2023-01-31T12:28:15;102639.69;;;7.51;76.21
61086;BME280;46967;48.876;2.136;2023-01-31T12:34:07;102630.16;;;7.46;75.92
61086;BME280;46967;48.876;2.136;2023-01-31T12:44:44;102614.91;;;7.69;74.69
61086;BME280;46967;48.876;2.136;2023-01-31T12:47:19;102600.34;;;7.77;74.76
61086;BME280;46967;48.876;2.136;2023-01-31T13:00:20;102582.72;;;8.23;72.57
61086;BME280;46967;48.876;2.136;2023-01-31T13:03:20;102568.06;;;8.27;72.31
61086;BME280;46967;48.876;2.136;2023-01-31T13:05:56;102568.03;;;8.24;72.42
61086;BME280;46967;48.876;2.136;2023-01-31T13:08:28;102568.28;;;8.53;72.10
61086;BME280;46967;48.876;2.136;2023-01-31T13:10:56;102564.06;;;8.70;70.96
61086;BME280;46967;48.876;2.136;2023-01-31T13:13:52;102571.13;;;8.90;69.66
61086;BME280;46967;48.876;2.136;2023-01-31T13:16:24;102568.50;;;8.84;69.47
61086;BME280;46967;48.876;2.136;2023-01-31T13:18:55;102568.53;;;8.95;69.27
61086;BME280;46967;48.876;2.136;2023-01-31T13:21:26;102559.84;;;8.88;69.15
61086;BME280;46967;48.876;2.136;2023-01-31T13:23:59;102562.50;;;8.99;68.93
61086;BME280;46967;48.876;2.136;2023-01-31T13:26:35;102565.94;;;8.93;68.70
61086;BME280;46967;48.876;2.136;2023-01-31T13:29:06;102565.94;;;8.92;68.53
61086;BME280;46967;48.876;2.136;2023-01-31T13:31:39;102565.13;;;9.06;69.18
61086;BME280;46967;48.876;2.136;2023-01-31T13:34:17;102558.22;;;9.07;68.88
61086;BME280;46967;48.876;2.136;2023-01-31T13:36:49;102555.66;;;9.10;69.17
61086;BME280;46967;48.876;2.136;2023-01-31T13:39:23;102528.06;;;9.14;69.12
61086;BME280;46967;48.876;2.136;2023-01-31T13:41:50;102530.59;;;9.01;69.55
61086;BME280;46967;48.876;2.136;2023-01-31T13:44:16;102532.28;;;8.90;69.97
61086;BME280;46967;48.876;2.136;2023-01-31T13:47:02;102532.31;;;9.07;69.93
61086;BME280;46967;48.876;2.136;2023-01-31T13:49:37;102544.34;;;8.89;69.95
61086;BME280;46967;48.876;2.136;2023-01-31T13:52:20;102533.13;;;8.91;69.99
61086;BME280;46967;48.876;2.136;2023-01-31T13:54:50;102532.31;;;8.96;70.19
61086;BME280;46967;48.876;2.136;2023-01-31T13:57:39;102522.88;;;9.15;69.91
61086;BME280;46967;48.876;2.136;2023-01-31T14:00:55;102534.06;;;9.08;69.01
61086;BME280;46967;48.876;2.136;2023-01-31T14:03:04;102529.75;;;9.13;68.87
61086;BME280;46967;48.876;2.136;2023-01-31T14:08:29;102537.53;;;9.12;69.85
61086;BME280;46967;48.876;2.136;2023-01-31T14:10:58;102543.53;;;9.03;70.11
61086;BME280;46967;48.876;2.136;2023-01-31T14:13:35;102530.63;;;9.07;70.06
61086;BME280;46967;48.876;2.136;2023-01-31T14:16:02;102540.13;;;9.12;70.39
61086;BME280;46967;48.876;2.136;2023-01-31T14:18:43;102553.03;;;9.05;70.40
61086;BME280;46967;48.876;2.136;2023-01-31T14:23:54;102561.63;;;8.94;70.64
61086;BME280;46967;48.876;2.136;2023-01-31T14:31:33;102567.53;;;8.68;72.34
61086;BME280;46967;48.876;2.136;2023-01-31T14:33:59;102568.50;;;8.88;71.31